sensor_id;sensor_type;location;lat;lon;timestamp;pressure;altitude;pressure_sealevel;temperature;humidity
8705;BME280;4389;41.932;25.904;2023-11-21T00:02:25;-16176.06;;;4.05;100.00
8705;BME280;4389;41.932;25.904;2023-11-21T00:04:52;-16176.06;;;4.05;99.94
8705;BME280;4389;41.932;25.904;2023-11-21T00:07:21;-16175.00;;;4.01;99.93
8705;BME280;4389;41.932;25.904;2023-11-21T00:09:48;-16174.59;;;4.00;100.00
8705;BME280;4389;41.932;25.904;2023-11-21T00:12:15;-16173.78;;;3.97;100.00
8705;BME280;4389;41.932;25.904;2023-11-21T00:14:42;-16175.00;;;4.01;100.00
8705;BME280;4389;41.932;25.904;2023-11-21T00:17:09;-16176.59;;;4.07;100.00
8705;BME280;4389;41.932;25.904;2023-11-21T00:19:35;-16176.34;;;4.06;99.40
8705;BME280;4389;41.932;25.904;2023-11-21T00:22:03;-16172.59;;;3.92;100.00
8705;BME280;4389;41.932;25.904;2023-11-21T00:24:31;-16172.88;;;3.93;100.00
8705;BME280;4389;41.932;25.904;2023-11-21T00:26:58;-16167.66;;;3.74;99.16
8705;BME280;4389;41.932;25.904;2023-11-21T00:29:25;-16169.66;;;3.81;100.00
8705;BME280;4389;41.932;25.904;2023-11-21T00:31:52;-16168.06;;;3.75;99.86
8705;BME280;4389;41.932;25.904;2023-11-21T00:34:19;-16166.06;;;3.68;100.00
8705;BME280;4389;41.932;25.904;2023-11-21T00:36:46;-16168.84;;;3.78;100.00
8705;BME280;4389;41.932;25.904;2023-11-21T00:39:12;-16165.53;;;3.66;99.87
8705;BME280;4389;41.932;25.904;2023-11-21T00:41:41;-16164.84;;;3.63;100.00
8705;BME280;4389;41.932;25.904;2023-11-21T00:44:08;-16165.66;;;3.66;100.00
8705;BME280;4389;41.932;25.904;2023-11-21T00:46:35;-16166.88;;;3.71;100.00
8705;BME280;4389;41.932;25.904;2023-11-21T00:49:03;-16165.78;;;3.67;100.00
8705;BME280;4389;41.932;25.904;2023-11-21T00:51:30;-16166.72;;;3.70;100.00
8705;BME280;4389;41.932;25.904;2023-11-21T00:53:56;-16168.84;;;3.78;99.74
8705;BME280;4389;41.932;25.904;2023-11-21T00:56:23;-16168.47;;;3.77;100.00
8705;BME280;4389;41.932;25.904;2023-11-21T00:58:52;-16167.25;;;3.72;100.00
8705;BME280;4389;41.932;25.904;2023-11-21T01:01:19;-16164.72;;;3.63;100.00
8705;BME280;4389;41.932;25.904;2023-11-21T01:03:47;-16164.06;;;3.60;100.00
8705;BME280;4389;41.932;25.904;2023-11-21T01:06:14;-16164.47;;;3.62;100.00
8705;BME280;4389;41.932;25.904;2023-11-21T01:08:41;-16164.31;;;3.61;100.00
8705;BME280;4389;41.932;25.904;2023-11-21T01:11:08;-16159.94;;;3.45;99.98
8705;BME280;4389;41.932;25.904;2023-11-21T01:13:37;-16158.72;;;3.40;100.00
8705;BME280;4389;41.932;25.904;2023-11-21T01:16:07;-16160.31;;;3.46;100.00
8705;BME280;4389;41.932;25.904;2023-11-21T01:18:35;-16158.19;;;3.38;100.00
8705;BME280;4389;41.932;25.904;2023-11-21T01:21:02;-16160.72;;;3.48;100.00
8705;BME280;4389;41.932;25.904;2023-11-21T01:23:28;-16160.84;;;3.48;100.00
8705;BME280;4389;41.932;25.904;2023-11-21T01:25:56;-16161.53;;;3.51;100.00
8705;BME280;4389;41.932;25.904;2023-11-21T01:28:23;-16158.47;;;3.39;100.00
8705;BME280;4389;41.932;25.904;2023-11-21T01:30:50;-16160.84;;;3.48;100.00
8705;BME280;4389;41.932;25.904;2023-11-21T01:33:18;-16158.31;;;3.39;99.60
8705;BME280;4389;41.932;25.904;2023-11-21T01:35:45;-16157.38;;;3.35;100.00
8705;BME280;4389;41.932;25.904;2023-11-21T01:38:12;-16157.25;;;3.35;100.00
8705;BME280;4389;41.932;25.904;2023-11-21T01:40:39;-16156.84;;;3.33;100.00
8705;BME280;4389;41.932;25.904;2023-11-21T01:43:06;-16157.91;;;3.37;100.00
8705;BME280;4389;41.932;25.904;2023-11-21T01:45:34;-16159.78;;;3.44;100.00
8705;BME280;4389;41.932;25.904;2023-11-21T01:48:02;-16155.25;;;3.27;100.00
8705;BME280;4389;41.932;25.904;2023-11-21T01:50:30;-16157.13;;;3.34;100.00
8705;BME280;4389;41.932;25.904;2023-11-21T01:52:59;-16152.59;;;3.17;100.00
8705;BME280;4389;41.932;25.904;2023-11-21T01:55:27;-16151.53;;;3.13;100.00
8705;BME280;4389;41.932;25.904;2023-11-21T01:57:55;-16151.00;;;3.11;100.00
8705;BME280;4389;41.932;25.904;2023-11-21T02:00:23;-16151.00;;;3.11;100.00
8705;BME280;4389;41.932;25.904;2023-11-21T02:02:51;-16149.53;;;3.06;100.00
8705;BME280;4389;41.932;25.904;2023-11-21T02:05:19;-16151.66;;;3.14;100.00
8705;BME280;4389;41.932;25.904;2023-11-21T02:07:48;-16150.19;;;3.08;100.00
8705;BME280;4389;41.932;25.904;2023-11-21T02:10:16;-16149.13;;;3.04;100.00
8705;BME280;4389;41.932;25.904;2023-11-21T02:12:48;-16153.53;;;3.21;100.00
8705;BME280;4389;41.932;25.904;2023-11-21T02:15:16;-16154.59;;;3.25;100.00
8705;BME280;4389;41.932;25.904;2023-11-21T02:17:46;-16159.94;;;3.45;100.00
8705;BME280;4389;41.932;25.904;2023-11-21T02:20:13;-16159.66;;;3.44;100.00
8705;BME280;4389;41.932;25.904;2023-11-21T02:22:41;-16157.66;;;3.36;99.94
8705;BME280;4389;41.932;25.904;2023-11-21T02:25:10;-16157.91;;;3.37;100.00
8705;BME280;4389;41.932;25.904;2023-11-21T02:27:38;-16157.53;;;3.36;99.99
8705;BME280;4389;41.932;25.904;2023-11-21T02:30:06;-16156.06;;;3.30;100.00
8705;BME280;4389;41.932;25.904;2023-11-21T02:32:38;-16153.78;;;3.22;100.00
8705;BME280;4389;41.932;25.904;2023-11-21T02:35:06;-16150.47;;;3.09;99.67
8705;BME280;4389;41.932;25.904;2023-11-21T02:37:33;-16148.31;;;3.01;100.00
8705;BME280;4389;41.932;25.904;2023-11-21T02:40:00;-16149.66;;;3.06;100.00
8705;BME280;4389;41.932;25.904;2023-11-21T02:42:30;-16147.78;;;2.99;100.00
8705;BME280;4389;41.932;25.904;2023-11-21T02:44:57;-16148.97;;;3.04;100.00
8705;BME280;4389;41.932;25.904;2023-11-21T02:47:24;-16150.31;;;3.09;100.00
8705;BME280;4389;41.932;25.904;2023-11-21T02:49:51;-16153.38;;;3.20;100.00
8705;BME280;4389;41.932;25.904;2023-11-21T02:52:18;-16151.53;;;3.13;100.00
8705;BME280;4389;41.932;25.904;2023-11-21T02:54:45;-16150.19;;;3.08;100.00
8705;BME280;4389;41.932;25.904;2023-11-21T02:57:12;-16150.47;;;3.09;99.85
8705;BME280;4389;41.932;25.904;2023-11-21T02:59:41;-16148.59;;;3.02;99.87
8705;BME280;4389;41.932;25.904;2023-11-21T03:02:08;-16150.47;;;3.09;99.77
8705;BME280;4389;41.932;25.904;2023-11-21T03:04:35;-16150.47;;;3.09;99.85
8705;BME280;4389;41.932;25.904;2023-11-21T03:07:01;-16150.47;;;3.09;99.02
8705;BME280;4389;41.932;25.904;2023-11-21T03:09:30;-16150.59;;;3.10;99.05
8705;BME280;4389;41.932;25.904;2023-11-21T03:11:57;-16145.91;;;2.92;99.69
8705;BME280;4389;41.932;25.904;2023-11-21T03:14:24;-16148.31;;;3.01;100.00
8705;BME280;4389;41.932;25.904;2023-11-21T03:16:52;-16148.84;;;3.03;99.36
8705;BME280;4389;41.932;25.904;2023-11-21T03:19:19;-16147.78;;;2.99;99.39
8705;BME280;4389;41.932;25.904;2023-11-21T03:21:46;-16146.72;;;2.95;100.00
8705;BME280;4389;41.932;25.904;2023-11-21T03:24:13;-16146.44;;;2.94;100.00
8705;BME280;4389;41.932;25.904;2023-11-21T03:26:44;-16145.66;;;2.91;100.00
8705;BME280;4389;41.932;25.904;2023-11-21T03:29:12;-16146.72;;;2.95;100.00
8705;BME280;4389;41.932;25.904;2023-11-21T03:31:40;-16146.72;;;2.95;100.00
8705;BME280;4389;41.932;25.904;2023-11-21T03:34:15;-16147.78;;;2.99;100.00
8705;BME280;4389;41.932;25.904;2023-11-21T03:36:43;-16149.38;;;3.05;100.00
8705;BME280;4389;41.932;25.904;2023-11-21T03:39:12;-16149.66;;;3.06;100.00
8705;BME280;4389;41.932;25.904;2023-11-21T03:41:38;-16150.59;;;3.10;100.00
8705;BME280;4389;41.932;25.904;2023-11-21T03:44:06;-16145.13;;;2.89;100.00
8705;BME280;4389;41.932;25.904;2023-11-21T03:46:32;-16142.72;;;2.80;100.00
8705;BME280;4389;41.932;25.904;2023-11-21T03:48:59;-16140.03;;;2.70;100.00
8705;BME280;4389;41.932;25.904;2023-11-21T03:51:27;-16142.72;;;2.80;100.00
8705;BME280;4389;41.932;25.904;2023-11-21T03:53:55;-16148.19;;;3.01;100.00
8705;BME280;4389;41.932;25.904;2023-11-21T03:56:21;-16149.13;;;3.04;100.00
8705;BME280;4389;41.932;25.904;2023-11-21T03:58:49;-16146.59;;;2.95;100.00
8705;BME280;4389;41.932;25.904;2023-11-21T04:01:20;-16143.25;;;2.82;100.00
8705;BME280;4389;41.932;25.904;2023-11-21T04:03:48;-16140.19;;;2.71;100.00
8705;BME280;4389;41.932;25.904;2023-11-21T04:06:15;-16141.38;;;2.75;100.00
8705;BME280;4389;41.932;25.904;2023-11-21T04:08:44;-16139.78;;;2.69;100.00
8705;BME280;4389;41.932;25.904;2023-11-21T04:11:11;-16142.59;;;2.80;100.00
8705;BME280;4389;41.932;25.904;2023-11-21T04:13:38;-16147.53;;;2.98;100.00
8705;BME280;4389;41.932;25.904;2023-11-21T04:16:06;-16152.59;;;3.17;100.00
8705;BME280;4389;41.932;25.904;2023-11-21T04:18:33;-16155.78;;;3.29;100.00
8705;BME280;4389;41.932;25.904;2023-11-21T04:21:00;-16157.66;;;3.36;100.00
8705;BME280;4389;41.932;25.904;2023-11-21T04:23:29;-16161.66;;;3.51;100.00
8705;BME280;4389;41.932;25.904;2023-11-21T04:25:58;-16161.94;;;3.52;100.00
8705;BME280;4389;41.932;25.904;2023-11-21T04:28:25;-16165.13;;;3.64;100.00
8705;BME280;4389;41.932;25.904;2023-11-21T04:30:52;-16165.78;;;3.67;100.00
8705;BME280;4389;41.932;25.904;2023-11-21T04:33:19;-16166.72;;;3.70;100.00
8705;BME280;4389;41.932;25.904;2023-11-21T04:35:47;-16167.25;;;3.72;100.00
8705;BME280;4389;41.932;25.904;2023-11-21T04:38:13;-16167.00;;;3.71;100.00
8705;BME280;4389;41.932;25.904;2023-11-21T04:40:41;-16168.47;;;3.77;100.00
8705;BME280;4389;41.932;25.904;2023-11-21T04:43:09;-16171.00;;;3.86;100.00
8705;BME280;4389;41.932;25.904;2023-11-21T04:45:36;-16169.41;;;3.80;100.00
8705;BME280;4389;41.932;25.904;2023-11-21T04:48:03;-16170.47;;;3.84;100.00
8705;BME280;4389;41.932;25.904;2023-11-21T04:50:31;-16170.34;;;3.84;100.00
8705;BME280;4389;41.932;25.904;2023-11-21T04:52:58;-16172.06;;;3.90;100.00
8705;BME280;4389;41.932;25.904;2023-11-21T04:55:24;-16171.53;;;3.88;100.00
8705;BME280;4389;41.932;25.904;2023-11-21T04:57:55;-16170.47;;;3.84;100.00
8705;BME280;4389;41.932;25.904;2023-11-21T05:00:25;-16166.88;;;3.71;100.00
8705;BME280;4389;41.932;25.904;2023-11-21T05:02:52;-16164.59;;;3.62;100.00
8705;BME280;4389;41.932;25.904;2023-11-21T05:05:19;-16163.94;;;3.60;100.00
8705;BME280;4389;41.932;25.904;2023-11-21T05:07:46;-16167.53;;;3.73;100.00
8705;BME280;4389;41.932;25.904;2023-11-21T05:10:13;-16167.78;;;3.74;100.00
8705;BME280;4389;41.932;25.904;2023-11-21T05:12:42;-16168.31;;;3.76;100.00
8705;BME280;4389;41.932;25.904;2023-11-21T05:15:09;-16168.59;;;3.77;100.00
8705;BME280;4389;41.932;25.904;2023-11-21T05:17:40;-16167.94;;;3.75;100.00
8705;BME280;4389;41.932;25.904;2023-11-21T05:20:10;-16168.31;;;3.76;100.00
8705;BME280;4389;41.932;25.904;2023-11-21T05:22:39;-16167.53;;;3.73;100.00
8705;BME280;4389;41.932;25.904;2023-11-21T05:25:06;-16165.94;;;3.67;100.00
8705;BME280;4389;41.932;25.904;2023-11-21T05:27:34;-16168.59;;;3.77;100.00
8705;BME280;4389;41.932;25.904;2023-11-21T05:30:01;-16172.19;;;3.91;100.00
8705;BME280;4389;41.932;25.904;2023-11-21T05:32:33;-16175.53;;;4.03;100.00
8705;BME280;4389;41.932;25.904;2023-11-21T05:35:02;-16178.47;;;4.14;100.00
8705;BME280;4389;41.932;25.904;2023-11-21T05:37:28;-16183.66;;;4.33;100.00
8705;BME280;4389;41.932;25.904;2023-11-21T05:39:55;-16187.13;;;4.46;100.00
8705;BME280;4389;41.932;25.904;2023-11-21T05:42:22;-16189.94;;;4.57;100.00
8705;BME280;4389;41.932;25.904;2023-11-21T05:44:49;-16189.66;;;4.56;100.00
8705;BME280;4389;41.932;25.904;2023-11-21T05:47:16;-16192.47;;;4.66;100.00
8705;BME280;4389;41.932;25.904;2023-11-21T05:49:43;-16192.88;;;4.68;100.00
8705;BME280;4389;41.932;25.904;2023-11-21T05:52:12;-16195.25;;;4.77;100.00
8705;BME280;4389;41.932;25.904;2023-11-21T05:54:39;-16198.19;;;4.88;100.00
8705;BME280;4389;41.932;25.904;2023-11-21T05:57:06;-16200.88;;;4.98;100.00
8705;BME280;4389;41.932;25.904;2023-11-21T05:59:34;-16200.06;;;4.95;100.00
8705;BME280;4389;41.932;25.904;2023-11-21T06:02:01;-16199.81;;;4.94;100.00
8705;BME280;4389;41.932;25.904;2023-11-21T06:04:28;-16205.66;;;5.16;100.00
8705;BME280;4389;41.932;25.904;2023-11-21T06:06:55;-16208.34;;;5.26;100.00
8705;BME280;4389;41.932;25.904;2023-11-21T06:09:23;-16206.59;;;5.19;100.00
8705;BME280;4389;41.932;25.904;2023-11-21T06:11:50;-16209.94;;;5.32;100.00
8705;BME280;4389;41.932;25.904;2023-11-21T06:14:17;-16214.47;;;5.49;100.00
8705;BME280;4389;41.932;25.904;2023-11-21T06:16:44;-16217.66;;;5.61;100.00
8705;BME280;4389;41.932;25.904;2023-11-21T06:19:11;-16215.78;;;5.54;100.00
8705;BME280;4389;41.932;25.904;2023-11-21T06:21:38;-16214.47;;;5.49;100.00
8705;BME280;4389;41.932;25.904;2023-11-21T06:24:06;-16217.94;;;5.62;99.86
8705;BME280;4389;41.932;25.904;2023-11-21T06:26:34;-16219.25;;;5.67;99.26
8705;BME280;4389;41.932;25.904;2023-11-21T06:29:01;-16215.53;;;5.53;100.00
8705;BME280;4389;41.932;25.904;2023-11-21T06:31:29;-16215.25;;;5.52;99.90
8705;BME280;4389;41.932;25.904;2023-11-21T06:33:58;-16223.78;;;5.84;100.00
8705;BME280;4389;41.932;25.904;2023-11-21T06:36:25;-16221.13;;;5.74;99.16
8705;BME280;4389;41.932;25.904;2023-11-21T06:38:52;-16223.53;;;5.83;98.86
8705;BME280;4389;41.932;25.904;2023-11-21T06:41:20;-16229.66;;;6.06;99.21
8705;BME280;4389;41.932;25.904;2023-11-21T06:43:49;-16232.72;;;6.17;98.75
8705;BME280;4389;41.932;25.904;2023-11-21T06:46:16;-16234.72;;;6.25;97.96
8705;BME280;4389;41.932;25.904;2023-11-21T06:48:44;-16234.47;;;6.24;98.00
8705;BME280;4389;41.932;25.904;2023-11-21T06:51:11;-16236.31;;;6.31;96.79
8705;BME280;4389;41.932;25.904;2023-11-21T06:53:38;-16237.66;;;6.36;96.96
8705;BME280;4389;41.932;25.904;2023-11-21T06:56:15;-16241.13;;;6.49;97.55
8705;BME280;4389;41.932;25.904;2023-11-21T06:58:42;-16238.06;;;6.37;98.02
8705;BME280;4389;41.932;25.904;2023-11-21T07:01:12;-16242.19;;;6.53;97.16
8705;BME280;4389;41.932;25.904;2023-11-21T07:03:40;-16243.53;;;6.58;96.92
8705;BME280;4389;41.932;25.904;2023-11-21T07:06:08;-16248.59;;;6.77;96.94
8705;BME280;4389;41.932;25.904;2023-11-21T07:08:35;-16250.19;;;6.83;96.02
8705;BME280;4389;41.932;25.904;2023-11-21T07:11:02;-16251.25;;;6.87;96.53
8705;BME280;4389;41.932;25.904;2023-11-21T07:13:29;-16255.38;;;7.02;96.20
8705;BME280;4389;41.932;25.904;2023-11-21T07:15:57;-16259.78;;;7.19;96.08
8705;BME280;4389;41.932;25.904;2023-11-21T07:18:26;-16259.78;;;7.19;96.43
8705;BME280;4389;41.932;25.904;2023-11-21T07:20:52;-16261.78;;;7.26;95.99
8705;BME280;4389;41.932;25.904;2023-11-21T07:23:19;-16267.63;;;7.48;96.26
8705;BME280;4389;41.932;25.904;2023-11-21T07:25:48;-16266.16;;;7.43;95.65
8705;BME280;4389;41.932;25.904;2023-11-21T07:28:15;-16266.03;;;7.42;95.67
8705;BME280;4389;41.932;25.904;2023-11-21T07:30:42;-16269.22;;;7.54;95.67
8705;BME280;4389;41.932;25.904;2023-11-21T07:33:09;-16273.75;;;7.71;95.71
8705;BME280;4389;41.932;25.904;2023-11-21T07:35:37;-16271.63;;;7.63;95.35
8705;BME280;4389;41.932;25.904;2023-11-21T07:38:04;-16273.09;;;7.69;95.42
8705;BME280;4389;41.932;25.904;2023-11-21T07:40:31;-16273.88;;;7.72;95.99
8705;BME280;4389;41.932;25.904;2023-11-21T07:42:58;-16272.81;;;7.68;95.69
8705;BME280;4389;41.932;25.904;2023-11-21T07:45:25;-16276.28;;;7.81;95.71
8705;BME280;4389;41.932;25.904;2023-11-21T07:47:53;-16275.47;;;7.78;95.74
8705;BME280;4389;41.932;25.904;2023-11-21T07:50:20;-16277.63;;;7.86;96.04
8705;BME280;4389;41.932;25.904;2023-11-21T07:52:48;-16278.16;;;7.88;96.72
8705;BME280;4389;41.932;25.904;2023-11-21T07:55:16;-16285.06;;;8.14;96.55
8705;BME280;4389;41.932;25.904;2023-11-21T07:57:42;-16288.53;;;8.27;96.07
8705;BME280;4389;41.932;25.904;2023-11-21T08:00:10;-16286.69;;;8.20;95.76
8705;BME280;4389;41.932;25.904;2023-11-21T08:02:38;-16286.69;;;8.20;96.23
8705;BME280;4389;41.932;25.904;2023-11-21T08:05:07;-16290.66;;;8.35;96.36
8705;BME280;4389;41.932;25.904;2023-11-21T08:07:34;-16294.13;;;8.48;96.23
8705;BME280;4389;41.932;25.904;2023-11-21T08:10:03;-16297.59;;;8.61;96.35
8705;BME280;4389;41.932;25.904;2023-11-21T08:12:31;-16300.25;;;8.71;96.59
8705;BME280;4389;41.932;25.904;2023-11-21T08:14:58;-16305.97;;;8.92;96.01
8705;BME280;4389;41.932;25.904;2023-11-21T08:17:25;-16308.50;;;9.01;95.63
8705;BME280;4389;41.932;25.904;2023-11-21T08:19:52;-16309.84;;;9.06;95.72
8705;BME280;4389;41.932;25.904;2023-11-21T08:22:19;-16312.50;;;9.16;95.62
8705;BME280;4389;41.932;25.904;2023-11-21T08:24:46;-16313.16;;;9.19;95.25
8705;BME280;4389;41.932;25.904;2023-11-21T08:27:14;-16317.56;;;9.35;95.63
8705;BME280;4389;41.932;25.904;2023-11-21T08:29:42;-16320.75;;;9.47;94.85
8705;BME280;4389;41.932;25.904;2023-11-21T08:32:09;-16322.59;;;9.54;94.99
8705;BME280;4389;41.932;25.904;2023-11-21T08:34:36;-16325.00;;;9.63;94.07
8705;BME280;4389;41.932;25.904;2023-11-21T08:37:05;-16327.13;;;9.71;94.73
8705;BME280;4389;41.932;25.904;2023-11-21T08:39:32;-16328.47;;;9.76;94.86
8705;BME280;4389;41.932;25.904;2023-11-21T08:42:00;-16332.47;;;9.91;94.68
8705;BME280;4389;41.932;25.904;2023-11-21T08:44:29;-16337.38;;;10.10;94.46
8705;BME280;4389;41.932;25.904;2023-11-21T08:46:56;-16340.44;;;10.21;92.92
8705;BME280;4389;41.932;25.904;2023-11-21T08:49:23;-16340.72;;;10.22;93.24
8705;BME280;4389;41.932;25.904;2023-11-21T08:51:51;-16344.44;;;10.36;92.40
8705;BME280;4389;41.932;25.904;2023-11-21T08:54:20;-16347.63;;;10.48;92.98
8705;BME280;4389;41.932;25.904;2023-11-21T08:56:47;-16348.56;;;10.52;92.26
8705;BME280;4389;41.932;25.904;2023-11-21T08:59:16;-16350.81;;;10.60;92.33
8705;BME280;4389;41.932;25.904;2023-11-21T09:01:44;-16351.09;;;10.61;91.31
8705;BME280;4389;41.932;25.904;2023-11-21T09:04:12;-16352.28;;;10.66;90.55
8705;BME280;4389;41.932;25.904;2023-11-21T09:06:39;-16352.94;;;10.68;91.06
8705;BME280;4389;41.932;25.904;2023-11-21T09:09:06;-16358.78;;;10.90;90.90
8705;BME280;4389;41.932;25.904;2023-11-21T09:11:34;-16363.06;;;11.06;90.01
8705;BME280;4389;41.932;25.904;2023-11-21T09:14:01;-16365.72;;;11.16;90.10
8705;BME280;4389;41.932;25.904;2023-11-21T09:16:29;-16366.78;;;11.20;89.27
8705;BME280;4389;41.932;25.904;2023-11-21T09:18:57;-16371.16;;;11.37;88.49
8705;BME280;4389;41.932;25.904;2023-11-21T09:21:24;-16372.09;;;11.40;88.94
8705;BME280;4389;41.932;25.904;2023-11-21T09:23:51;-16373.97;;;11.47;89.60
8705;BME280;4389;41.932;25.904;2023-11-21T09:26:19;-16379.81;;;11.69;89.63
8705;BME280;4389;41.932;25.904;2023-11-21T09:28:46;-16383.78;;;11.84;88.00
8705;BME280;4389;41.932;25.904;2023-11-21T09:31:13;-16386.19;;;11.93;88.77
8705;BME280;4389;41.932;25.904;2023-11-21T09:33:41;-16388.72;;;12.03;87.71
8705;BME280;4389;41.932;25.904;2023-11-21T09:36:12;-16388.97;;;12.04;87.83
8705;BME280;4389;41.932;25.904;2023-11-21T09:38:40;-16389.91;;;12.07;87.87
8705;BME280;4389;41.932;25.904;2023-11-21T09:41:12;-16391.25;;;12.12;87.83
8705;BME280;4389;41.932;25.904;2023-11-21T09:43:44;-16391.50;;;12.13;86.88
8705;BME280;4389;41.932;25.904;2023-11-21T09:46:13;-16391.78;;;12.14;87.28
8705;BME280;4389;41.932;25.904;2023-11-21T09:48:47;-16394.81;;;12.26;87.60
8705;BME280;4389;41.932;25.904;2023-11-21T09:51:19;-16395.75;;;12.29;87.25
8705;BME280;4389;41.932;25.904;2023-11-21T09:53:50;-16399.34;;;12.43;87.61
8705;BME280;4389;41.932;25.904;2023-11-21T09:56:18;-16402.13;;;12.53;86.32
8705;BME280;4389;41.932;25.904;2023-11-21T09:58:51;-16404.25;;;12.61;86.14
8705;BME280;4389;41.932;25.904;2023-11-21T10:01:19;-16408.78;;;12.78;86.03
8705;BME280;4389;41.932;25.904;2023-11-21T10:03:47;-16413.56;;;12.96;84.87
8705;BME280;4389;41.932;25.904;2023-11-21T10:06:16;-16416.50;;;13.07;83.79
8705;BME280;4389;41.932;25.904;2023-11-21T10:08:46;-16416.75;;;13.08;83.37
8705;BME280;4389;41.932;25.904;2023-11-21T10:11:14;-16420.22;;;13.21;83.06
8705;BME280;4389;41.932;25.904;2023-11-21T10:13:43;-16422.59;;;13.30;82.19
8705;BME280;4389;41.932;25.904;2023-11-21T10:16:14;-16424.72;;;13.38;82.01
8705;BME280;4389;41.932;25.904;2023-11-21T10:18:48;-16424.31;;;13.37;81.97
8705;BME280;4389;41.932;25.904;2023-11-21T10:21:18;-16429.25;;;13.55;81.36
8705;BME280;4389;41.932;25.904;2023-11-21T10:23:46;-16434.28;;;13.74;80.40
8705;BME280;4389;41.932;25.904;2023-11-21T10:26:13;-16437.59;;;13.86;79.81
8705;BME280;4389;41.932;25.904;2023-11-21T10:28:41;-16443.19;;;14.07;78.16
8705;BME280;4389;41.932;25.904;2023-11-21T10:31:21;-16445.69;;;14.17;77.69
8705;BME280;4389;41.932;25.904;2023-11-21T10:33:49;-16446.63;;;14.20;78.14
8705;BME280;4389;41.932;25.904;2023-11-21T10:36:25;-16454.59;;;14.50;77.48
8705;BME280;4389;41.932;25.904;2023-11-21T10:38:54;-16457.66;;;14.62;76.81
8705;BME280;4389;41.932;25.904;2023-11-21T10:41:22;-16462.03;;;14.78;76.24
8705;BME280;4389;41.932;25.904;2023-11-21T10:43:53;-16458.97;;;14.67;76.37
8705;BME280;4389;41.932;25.904;2023-11-21T10:46:21;-16458.19;;;14.64;76.83
8705;BME280;4389;41.932;25.904;2023-11-21T10:48:52;-16459.63;;;14.69;76.90
8705;BME280;4389;41.932;25.904;2023-11-21T10:51:20;-16462.28;;;14.79;76.49
8705;BME280;4389;41.932;25.904;2023-11-21T10:53:47;-16466.28;;;14.94;76.07
8705;BME280;4389;41.932;25.904;2023-11-21T10:56:18;-16468.53;;;15.03;75.56
8705;BME280;4389;41.932;25.904;2023-11-21T10:58:49;-16472.38;;;15.17;75.32
8705;BME280;4389;41.932;25.904;2023-11-21T11:01:17;-16475.03;;;15.27;73.78
8705;BME280;4389;41.932;25.904;2023-11-21T11:03:47;-16476.75;;;15.34;74.93
8705;BME280;4389;41.932;25.904;2023-11-21T11:06:14;-16479.41;;;15.44;74.79
8705;BME280;4389;41.932;25.904;2023-11-21T11:08:41;-16480.75;;;15.49;74.51
8705;BME280;4389;41.932;25.904;2023-11-21T11:11:09;-16486.06;;;15.69;73.60
8705;BME280;4389;41.932;25.904;2023-11-21T11:13:43;-16489.38;;;15.81;73.71
8705;BME280;4389;41.932;25.904;2023-11-21T11:16:12;-16491.88;;;15.91;73.07
8705;BME280;4389;41.932;25.904;2023-11-21T11:18:42;-16493.22;;;15.96;72.88
8705;BME280;4389;41.932;25.904;2023-11-21T11:21:16;-16492.41;;;15.93;73.03
8705;BME280;4389;41.932;25.904;2023-11-21T11:24:00;-16491.75;;;15.90;72.56
8705;BME280;4389;41.932;25.904;2023-11-21T11:26:42;-16491.63;;;15.90;73.40
8705;BME280;4389;41.932;25.904;2023-11-21T11:29:21;-16493.06;;;15.95;73.01
8705;BME280;4389;41.932;25.904;2023-11-21T11:32:03;-16493.75;;;15.98;72.88
8705;BME280;4389;41.932;25.904;2023-11-21T11:34:33;-16490.44;;;15.85;74.07
8705;BME280;4389;41.932;25.904;2023-11-21T11:37:03;-16492.69;;;15.94;73.60
8705;BME280;4389;41.932;25.904;2023-11-21T11:39:35;-16493.47;;;15.97;74.75
8705;BME280;4389;41.932;25.904;2023-11-21T11:42:04;-16494.00;;;15.99;74.51
8705;BME280;4389;41.932;25.904;2023-11-21T11:44:52;-16492.81;;;15.94;74.70
8705;BME280;4389;41.932;25.904;2023-11-21T11:47:23;-16490.28;;;15.85;75.47
8705;BME280;4389;41.932;25.904;2023-11-21T11:50:02;-16492.16;;;15.92;75.79
8705;BME280;4389;41.932;25.904;2023-11-21T11:52:40;-16492.69;;;15.94;76.69
8705;BME280;4389;41.932;25.904;2023-11-21T11:55:09;-16494.28;;;16.00;76.18
8705;BME280;4389;41.932;25.904;2023-11-21T11:57:41;-16491.63;;;15.90;76.28
8705;BME280;4389;41.932;25.904;2023-11-21T12:00:16;-16484.47;;;15.63;77.49
8705;BME280;4389;41.932;25.904;2023-11-21T12:02:46;-16483.25;;;15.58;78.41
8705;BME280;4389;41.932;25.904;2023-11-21T12:05:16;-16486.84;;;15.72;78.46
8705;BME280;4389;41.932;25.904;2023-11-21T12:07:48;-16485.38;;;15.66;78.54
8705;BME280;4389;41.932;25.904;2023-11-21T12:10:17;-16483.41;;;15.59;78.84
8705;BME280;4389;41.932;25.904;2023-11-21T12:12:45;-16481.94;;;15.53;79.12
8705;BME280;4389;41.932;25.904;2023-11-21T12:15:12;-16476.63;;;15.33;79.94
8705;BME280;4389;41.932;25.904;2023-11-21T12:17:42;-16476.50;;;15.33;80.40
8705;BME280;4389;41.932;25.904;2023-11-21T12:20:10;-16475.31;;;15.28;80.54
8705;BME280;4389;41.932;25.904;2023-11-21T12:22:45;-16473.31;;;15.21;80.58
8705;BME280;4389;41.932;25.904;2023-11-21T12:25:15;-16470.00;;;15.08;81.16
8705;BME280;4389;41.932;25.904;2023-11-21T12:27:44;-16467.72;;;15.00;82.10
8705;BME280;4389;41.932;25.904;2023-11-21T12:30:13;-16466.00;;;14.93;82.87
8705;BME280;4389;41.932;25.904;2023-11-21T12:32:43;-16467.72;;;15.00;82.76
8705;BME280;4389;41.932;25.904;2023-11-21T12:35:12;-16465.09;;;14.90;83.34
8705;BME280;4389;41.932;25.904;2023-11-21T12:37:40;-16464.16;;;14.86;83.34
8705;BME280;4389;41.932;25.904;2023-11-21T12:40:09;-16465.22;;;14.90;83.46
8705;BME280;4389;41.932;25.904;2023-11-21T12:42:39;-16461.63;;;14.77;83.99
8705;BME280;4389;41.932;25.904;2023-11-21T12:45:18;-16462.44;;;14.80;84.05
8705;BME280;4389;41.932;25.904;2023-11-21T12:47:47;-16461.09;;;14.75;84.46
8705;BME280;4389;41.932;25.904;2023-11-21T12:50:18;-16462.16;;;14.79;84.73
8705;BME280;4389;41.932;25.904;2023-11-21T12:52:50;-16461.09;;;14.75;84.99
8705;BME280;4389;41.932;25.904;2023-11-21T12:55:20;-16458.97;;;14.67;85.41
8705;BME280;4389;41.932;25.904;2023-11-21T12:57:48;-16457.13;;;14.60;86.26
8705;BME280;4389;41.932;25.904;2023-11-21T13:00:18;-16456.59;;;14.58;86.34
8705;BME280;4389;41.932;25.904;2023-11-21T13:02:56;-16457.78;;;14.62;86.71
8705;BME280;4389;41.932;25.904;2023-11-21T13:05:25;-16459.50;;;14.69;86.66
8705;BME280;4389;41.932;25.904;2023-11-21T13:07:52;-16457.66;;;14.62;87.03
8705;BME280;4389;41.932;25.904;2023-11-21T13:10:22;-16454.72;;;14.51;87.62